createdAt,value
2022-08-17T00:00:51.796Z,23.17
2022-08-17T00:01:51.981Z,23.18
2022-08-17T00:02:44.933Z,23.17
2022-08-17T00:03:44.922Z,23.18
2022-08-17T00:04:50.295Z,23.28
2022-08-17T00:05:44.909Z,23.21
2022-08-17T00:06:44.877Z,23.23
2022-08-17T00:07:44.863Z,23.29
2022-08-17T00:08:44.854Z,23.18
2022-08-17T00:09:44.830Z,23.23
2022-08-17T00:10:44.832Z,23.25
2022-08-17T00:12:41.239Z,23.26
2022-08-17T00:12:44.909Z,23.22
2022-08-17T00:13:44.895Z,23.36
2022-08-17T00:14:44.756Z,23.34
2022-08-17T00:15:44.746Z,23.31
2022-08-17T00:16:56.058Z,23.28
2022-08-17T00:17:44.729Z,23.18
2022-08-17T00:19:01.476Z,23.26
2022-08-17T00:19:44.679Z,23.26
2022-08-17T00:20:44.662Z,23.23
2022-08-17T00:22:29.530Z,23.26
2022-08-17T00:22:44.661Z,23.21
2022-08-17T00:23:48.977Z,23.28
2022-08-17T00:24:44.601Z,23.15
2022-08-17T00:25:44.606Z,23.14
2022-08-17T00:26:45.470Z,23.15
2022-08-17T00:27:44.555Z,23.14
2022-08-17T00:28:44.547Z,23.21
2022-08-17T00:29:44.535Z,23.17
2022-08-17T00:30:51.468Z,23.11
2022-08-17T00:31:44.492Z,23.10
2022-08-17T00:33:15.285Z,23.13
2022-08-17T00:33:44.486Z,23.06
2022-08-17T00:34:44.450Z,23.08
2022-08-17T00:35:44.441Z,23.10
2022-08-17T00:36:44.432Z,22.99
2022-08-17T00:37:44.403Z,23.01
2022-08-17T00:38:44.410Z,23.03
2022-08-17T00:39:44.465Z,23.03
2022-08-17T00:40:45.101Z,23.10
2022-08-17T00:41:44.348Z,23.06
2022-08-17T00:42:44.334Z,23.03
2022-08-17T00:43:44.335Z,23.01
2022-08-17T00:44:44.304Z,23.04
2022-08-17T00:45:44.283Z,22.99
2022-08-17T00:46:44.275Z,22.99
2022-08-17T00:47:44.254Z,22.98
2022-08-17T00:48:44.241Z,22.98
2022-08-17T00:49:44.241Z,22.96
2022-08-17T00:50:44.208Z,22.96
2022-08-17T00:51:44.197Z,22.96
2022-08-17T00:52:44.180Z,22.98
2022-08-17T00:53:44.186Z,23.01
2022-08-17T00:54:44.173Z,22.95
2022-08-17T00:55:44.133Z,23.01
2022-08-17T00:56:44.121Z,22.96
2022-08-17T00:57:44.102Z,23.06
2022-08-17T00:58:44.085Z,23.06
2022-08-17T00:59:44.086Z,23.07
2022-08-17T01:00:44.111Z,23.03
2022-08-17T01:01:44.041Z,23.07
2022-08-17T01:02:44.143Z,23.03
2022-08-17T01:03:44.008Z,23.15
2022-08-17T01:04:44.014Z,23.01
2022-08-17T01:05:43.982Z,23.03
2022-08-17T01:06:43.958Z,23.06
2022-08-17T01:07:43.948Z,23.10
2022-08-17T01:08:43.945Z,23.07
2022-08-17T01:09:43.913Z,23.06
2022-08-17T01:10:59.260Z,23.03
2022-08-17T01:11:43.906Z,23.01
2022-08-17T01:12:43.869Z,23.06
2022-08-17T01:13:43.856Z,23.01
2022-08-17T01:14:43.838Z,23.04
2022-08-17T01:15:46.184Z,23.01
2022-08-17T01:16:43.807Z,23.08
2022-08-17T01:17:43.811Z,23.04
2022-08-17T01:18:43.775Z,22.98
2022-08-17T01:19:43.762Z,23.03
2022-08-17T01:20:48.195Z,22.99
2022-08-17T01:21:43.734Z,22.99
2022-08-17T01:22:43.731Z,22.95
2022-08-17T01:23:43.702Z,22.88
2022-08-17T01:24:43.702Z,22.95
2022-08-17T01:25:43.671Z,22.93
2022-08-17T01:26:43.651Z,22.89
2022-08-17T01:27:43.644Z,22.80
2022-08-17T01:28:53.985Z,22.77
2022-08-17T01:29:43.627Z,22.83
2022-08-17T01:30:58.402Z,22.77
2022-08-17T01:31:43.580Z,22.81
2022-08-17T01:32:43.557Z,22.80
2022-08-17T01:33:43.553Z,22.78
2022-08-17T01:34:50.463Z,22.81
2022-08-17T01:35:43.521Z,22.81
2022-08-17T01:36:43.498Z,22.80
2022-08-17T01:37:43.488Z,22.76
2022-08-17T01:40:25.704Z,22.83
2022-08-17T01:41:25.684Z,22.81
2022-08-17T01:42:25.668Z,22.77
2022-08-17T01:43:25.654Z,22.86
2022-08-17T01:44:25.662Z,22.81
2022-08-17T01:45:25.626Z,22.76
2022-08-17T01:46:25.633Z,22.83
2022-08-17T01:47:25.594Z,22.83
2022-08-17T01:48:25.577Z,22.77
2022-08-17T01:49:25.566Z,22.81
2022-08-17T01:50:25.565Z,22.83
2022-08-17T01:51:25.543Z,22.83
2022-08-17T01:52:25.513Z,22.71
2022-08-17T01:53:25.498Z,22.83
2022-08-17T01:54:25.484Z,22.73
2022-08-17T01:55:27.457Z,22.71
2022-08-17T01:56:25.449Z,22.70
2022-08-17T01:57:25.435Z,22.76
2022-08-17T01:58:25.434Z,22.70
2022-08-17T01:59:25.401Z,22.73
2022-08-17T02:00:25.389Z,22.70
2022-08-17T02:01:25.437Z,22.68
2022-08-17T02:02:31.191Z,22.66
2022-08-17T02:03:25.355Z,22.66
2022-08-17T02:04:25.324Z,22.51
2022-08-17T02:05:25.312Z,22.49
2022-08-17T02:06:28.211Z,22.53
2022-08-17T02:07:27.074Z,22.48
2022-08-17T02:08:37.182Z,22.48
2022-08-17T02:09:25.794Z,22.43
2022-08-17T02:10:25.229Z,22.41
2022-08-17T02:11:25.233Z,22.37
2022-08-17T02:12:39.377Z,22.34
2022-08-17T02:13:25.185Z,22.21
2022-08-17T02:14:25.184Z,22.23
2022-08-17T02:15:25.154Z,22.21
2022-08-17T02:16:25.136Z,22.11
2022-08-17T02:17:25.126Z,22.15
2022-08-17T02:18:25.127Z,22.16
2022-08-17T02:19:25.088Z,22.04
2022-08-17T02:20:41.604Z,22.11
2022-08-17T02:21:25.061Z,22.06
2022-08-17T02:22:25.062Z,22.09
2022-08-17T02:23:25.063Z,22.01
2022-08-17T02:24:59.360Z,22.00
2022-08-17T02:25:24.999Z,21.82
2022-08-17T02:26:26.416Z,21.81
2022-08-17T02:27:24.964Z,21.75
2022-08-17T02:28:24.968Z,21.75
2022-08-17T02:29:24.939Z,21.77
2022-08-17T02:31:00.646Z,21.73
2022-08-17T02:31:24.924Z,21.69
2022-08-17T02:32:27.586Z,21.63
2022-08-17T02:33:24.871Z,21.55
2022-08-17T02:34:24.876Z,21.60
2022-08-17T02:35:24.835Z,21.51
2022-08-17T02:36:27.386Z,21.45
2022-08-17T02:37:24.823Z,21.37
2022-08-17T02:38:24.801Z,21.43
2022-08-17T02:39:24.827Z,21.43
2022-08-17T02:40:35.979Z,21.43
2022-08-17T02:41:24.744Z,21.41
2022-08-17T02:42:24.726Z,21.44
2022-08-17T02:43:24.709Z,21.48
2022-08-17T02:44:39.805Z,21.43
2022-08-17T02:45:24.699Z,21.47
2022-08-17T02:46:24.664Z,21.38
2022-08-17T02:47:24.665Z,21.47
2022-08-17T02:48:30.972Z,21.53
2022-08-17T02:49:24.624Z,21.51
2022-08-17T02:50:24.603Z,21.48
2022-08-17T02:51:24.586Z,21.55
2022-08-17T02:52:42.378Z,21.58
2022-08-17T02:53:24.552Z,21.50
2022-08-17T02:54:39.654Z,21.47
2022-08-17T02:55:24.535Z,21.43
2022-08-17T02:56:24.504Z,21.38
2022-08-17T02:57:24.506Z,21.51
2022-08-17T02:58:29.583Z,21.45
2022-08-17T02:59:24.464Z,21.40
2022-08-17T03:00:24.439Z,21.55
2022-08-17T03:01:24.519Z,21.40
2022-08-17T03:02:24.439Z,21.59
2022-08-17T03:03:24.393Z,21.56
2022-08-17T03:04:24.430Z,21.58
2022-08-17T03:05:24.361Z,21.67
2022-08-17T03:06:24.348Z,21.75
2022-08-17T03:07:24.340Z,21.80
2022-08-17T03:08:24.330Z,21.77
2022-08-17T03:09:24.298Z,21.78
2022-08-17T03:10:24.296Z,21.84
2022-08-17T03:11:24.266Z,21.80
2022-08-17T03:12:24.256Z,21.90
2022-08-17T03:13:24.246Z,21.88
2022-08-17T03:14:26.103Z,22.00
2022-08-17T03:15:24.209Z,21.96
2022-08-17T03:16:24.181Z,21.98
2022-08-17T03:17:24.179Z,22.01
2022-08-17T03:18:26.057Z,22.07
2022-08-17T03:19:24.142Z,22.07
2022-08-17T03:20:24.121Z,22.03
2022-08-17T03:21:24.113Z,22.06
2022-08-17T03:22:36.727Z,22.03
2022-08-17T03:23:25.261Z,22.04
2022-08-17T03:24:28.680Z,22.06
2022-08-17T03:25:24.049Z,22.11
2022-08-17T03:26:24.023Z,22.09
2022-08-17T03:27:24.009Z,22.15
2022-08-17T03:28:23.992Z,22.04
2022-08-17T03:29:23.996Z,22.07
2022-08-17T03:30:23.963Z,22.22
2022-08-17T03:31:23.944Z,22.23
2022-08-17T03:32:23.943Z,22.21
2022-08-17T03:33:23.922Z,22.25
2022-08-17T03:34:23.915Z,22.23
2022-08-17T03:35:23.881Z,22.28
2022-08-17T03:36:23.872Z,22.23
2022-08-17T03:37:23.850Z,22.31
2022-08-17T03:38:23.836Z,22.30
2022-08-17T03:39:23.967Z,22.30
2022-08-17T03:40:41.822Z,22.33
2022-08-17T03:41:23.814Z,22.28
2022-08-17T03:42:31.323Z,22.40
2022-08-17T03:43:23.758Z,22.44
2022-08-17T03:44:23.739Z,22.41
2022-08-17T03:45:23.725Z,22.43
2022-08-17T03:46:34.435Z,22.43
2022-08-17T03:47:23.695Z,22.48
2022-08-17T03:48:23.678Z,22.48
2022-08-17T03:49:23.666Z,22.52
2022-08-17T03:50:23.648Z,22.52
2022-08-17T03:51:23.648Z,22.48
2022-08-17T03:52:23.623Z,22.44
2022-08-17T03:53:23.601Z,22.37
2022-08-17T03:54:23.591Z,22.21
2022-08-17T03:55:30.745Z,22.16
2022-08-17T03:56:23.553Z,22.11
2022-08-17T03:57:23.564Z,22.13
2022-08-17T03:58:23.523Z,22.11
2022-08-17T03:59:23.508Z,22.12
2022-08-17T04:00:23.506Z,22.13
2022-08-17T04:01:23.541Z,22.11
2022-08-17T04:02:23.479Z,22.04
2022-08-17T04:03:23.441Z,22.11
2022-08-17T04:04:27.759Z,22.07
2022-08-17T04:05:23.431Z,22.07
2022-08-17T04:06:23.396Z,22.04
2022-08-17T04:07:23.379Z,22.16
2022-08-17T04:08:23.362Z,22.07
2022-08-17T04:09:23.360Z,22.16
2022-08-17T04:10:26.407Z,22.21
2022-08-17T04:11:23.343Z,22.16
2022-08-17T04:12:23.302Z,22.23
2022-08-17T04:13:24.959Z,22.36
2022-08-17T04:14:23.270Z,22.36
2022-08-17T04:15:23.263Z,22.33
2022-08-17T04:16:23.233Z,22.33
2022-08-17T04:17:23.256Z,22.33
2022-08-17T04:18:23.223Z,22.36
2022-08-17T04:19:23.210Z,22.34
2022-08-17T04:20:23.180Z,22.37
2022-08-17T04:21:23.166Z,22.38
2022-08-17T04:22:30.205Z,22.43
2022-08-17T04:23:23.154Z,22.41
2022-08-17T04:24:23.139Z,22.46
2022-08-17T04:25:23.146Z,22.43
2022-08-17T04:26:52.771Z,22.38
2022-08-17T04:27:23.067Z,22.41
2022-08-17T04:28:23.061Z,22.38
2022-08-17T04:29:23.031Z,22.34
2022-08-17T04:30:23.043Z,22.38
2022-08-17T04:31:23.040Z,22.41
2022-08-17T04:32:59.203Z,22.44
2022-08-17T04:33:22.978Z,22.28
2022-08-17T04:34:22.957Z,22.40
2022-08-17T04:35:22.946Z,22.40
2022-08-17T04:36:22.942Z,22.51
2022-08-17T04:37:22.907Z,22.51
2022-08-17T04:38:22.890Z,22.44
2022-08-17T04:39:22.874Z,22.52
2022-08-17T04:40:22.882Z,22.48
2022-08-17T04:41:22.843Z,22.51
2022-08-17T04:42:22.826Z,22.52
2022-08-17T04:43:22.811Z,22.53
2022-08-17T04:44:36.862Z,22.51
2022-08-17T04:45:22.811Z,22.49
2022-08-17T04:46:22.780Z,22.48
2022-08-17T04:47:22.752Z,22.49
2022-08-17T04:48:22.912Z,22.55
2022-08-17T04:49:22.721Z,22.49
2022-08-17T04:50:22.704Z,22.48
2022-08-17T04:51:22.720Z,22.49
2022-08-17T04:52:29.705Z,22.55
2022-08-17T04:53:22.653Z,22.55
2022-08-17T04:54:22.661Z,22.48
2022-08-17T04:55:22.636Z,22.55
2022-08-17T04:56:22.643Z,22.49
2022-08-17T04:57:22.614Z,22.55
2022-08-17T04:58:22.576Z,22.48
2022-08-17T04:59:22.566Z,22.52
2022-08-17T05:00:22.539Z,22.55
2022-08-17T05:01:23.675Z,22.53
2022-08-17T05:02:22.568Z,22.49
2022-08-17T05:03:22.512Z,22.48
2022-08-17T05:04:33.879Z,22.52
2022-08-17T05:05:22.477Z,22.53
2022-08-17T05:06:22.457Z,22.48
2022-08-17T05:07:24.618Z,22.48
2022-08-17T05:08:22.413Z,22.49
2022-08-17T05:09:22.405Z,22.49
2022-08-17T05:10:22.391Z,22.58
2022-08-17T05:11:22.367Z,22.53
2022-08-17T05:12:22.384Z,22.52
2022-08-17T05:13:22.392Z,22.48
2022-08-17T05:14:22.318Z,22.52
2022-08-17T05:15:22.314Z,22.53
2022-08-17T05:16:22.289Z,22.49
2022-08-17T05:17:22.273Z,22.48
2022-08-17T05:18:22.278Z,22.49
2022-08-17T05:19:22.246Z,22.52
2022-08-17T05:20:22.223Z,22.49
2022-08-17T05:21:22.205Z,22.53
2022-08-17T05:22:22.192Z,22.56
2022-08-17T05:23:22.177Z,22.51
2022-08-17T05:24:42.531Z,22.56
2022-08-17T05:25:23.929Z,22.62
2022-08-17T05:26:26.020Z,22.59
2022-08-17T05:27:22.113Z,22.61
2022-08-17T05:28:26.713Z,22.68
2022-08-17T05:29:22.101Z,22.70
2022-08-17T05:30:22.081Z,22.67
2022-08-17T05:31:22.055Z,22.64
2022-08-17T05:32:39.055Z,22.61
2022-08-17T05:33:22.027Z,22.70
2022-08-17T05:34:22.068Z,22.46
2022-08-17T05:35:22.061Z,22.44
2022-08-17T05:36:43.123Z,22.38
2022-08-17T05:37:21.955Z,22.37
2022-08-17T05:38:21.936Z,22.31
2022-08-17T05:39:21.924Z,22.30
2022-08-17T05:40:21.909Z,22.31
2022-08-17T05:41:21.910Z,22.25
2022-08-17T05:42:21.881Z,22.28
2022-08-17T05:43:21.861Z,22.19
2022-08-17T05:44:21.848Z,22.11
2022-08-17T05:45:54.545Z,22.04
2022-08-17T05:46:21.825Z,22.04
2022-08-17T05:47:21.805Z,22.00
2022-08-17T05:48:21.779Z,22.13
2022-08-17T05:49:21.770Z,22.11
2022-08-17T05:50:26.044Z,22.16
2022-08-17T05:51:21.751Z,22.23
2022-08-17T05:52:21.717Z,22.33
2022-08-17T05:53:21.703Z,22.38
2022-08-17T05:54:21.682Z,22.48
2022-08-17T05:55:21.677Z,22.51
2022-08-17T05:56:29.454Z,22.61
2022-08-17T05:57:21.651Z,22.73
2022-08-17T05:58:21.619Z,22.74
2022-08-17T05:59:21.605Z,22.73
2022-08-17T06:00:21.596Z,22.83
2022-08-17T06:01:21.654Z,22.77
2022-08-17T06:02:21.583Z,22.93
2022-08-17T06:03:21.534Z,22.88
2022-08-17T06:04:21.524Z,22.78
2022-08-17T06:05:21.521Z,22.83
2022-08-17T06:06:21.490Z,22.85
2022-08-17T06:07:21.494Z,22.80
2022-08-17T06:08:21.474Z,22.78
2022-08-17T06:09:26.753Z,22.71
2022-08-17T06:10:21.428Z,22.68
2022-08-17T06:11:21.414Z,22.80
2022-08-17T06:12:21.405Z,22.78
2022-08-17T06:13:21.397Z,22.78
2022-08-17T06:14:21.366Z,22.91
2022-08-17T06:15:21.367Z,22.91
2022-08-17T06:16:33.794Z,22.96
2022-08-17T06:17:21.487Z,22.98
2022-08-17T06:18:21.304Z,23.04
2022-08-17T06:19:21.320Z,23.07
2022-08-17T06:20:21.276Z,23.11
2022-08-17T06:21:23.729Z,23.14
2022-08-17T06:22:21.242Z,23.23
2022-08-17T06:23:21.221Z,23.25
2022-08-17T06:24:21.230Z,23.33
2022-08-17T06:25:21.226Z,23.33
2022-08-17T06:26:21.178Z,23.26
2022-08-17T06:27:21.173Z,23.29
2022-08-17T06:28:21.150Z,23.31
2022-08-17T06:29:21.136Z,23.44
2022-08-17T06:30:21.138Z,23.41
2022-08-17T06:31:21.152Z,23.39
2022-08-17T06:32:21.086Z,23.37
2022-08-17T06:33:21.076Z,23.44
2022-08-17T06:34:21.050Z,23.39
2022-08-17T06:35:21.058Z,23.37
2022-08-17T06:36:21.040Z,23.41
2022-08-17T06:37:21.011Z,23.39
2022-08-17T06:38:37.195Z,23.44
2022-08-17T06:39:20.975Z,23.45
2022-08-17T06:40:20.960Z,23.52
2022-08-17T06:41:20.975Z,23.51
2022-08-17T06:43:02.863Z,23.52
2022-08-17T06:43:20.913Z,23.54
2022-08-17T06:44:43.265Z,23.49
2022-08-17T06:45:20.895Z,23.59
2022-08-17T06:46:20.887Z,23.55
2022-08-17T06:47:28.671Z,23.56
2022-08-17T06:48:20.842Z,23.51
2022-08-17T06:49:20.830Z,23.48
2022-08-17T06:50:20.808Z,23.56
2022-08-17T06:51:20.799Z,23.51
2022-08-17T06:52:55.755Z,23.54
2022-08-17T06:53:20.781Z,23.48
2022-08-17T06:54:20.751Z,23.41
2022-08-17T06:55:20.757Z,23.42
2022-08-17T06:56:20.726Z,23.39
2022-08-17T06:57:20.751Z,23.39
2022-08-17T06:58:20.714Z,23.41
2022-08-17T06:59:20.694Z,23.44
2022-08-17T07:00:20.680Z,23.51
2022-08-17T07:01:20.731Z,23.51
2022-08-17T07:02:20.647Z,23.48
2022-08-17T07:03:20.642Z,23.49
2022-08-17T07:04:20.604Z,23.49
2022-08-17T07:05:20.601Z,23.46
2022-08-17T07:06:20.567Z,23.46
2022-08-17T07:07:20.547Z,23.52
2022-08-17T07:08:20.546Z,23.55
2022-08-17T07:09:20.533Z,23.42
2022-08-17T07:10:20.505Z,23.39
2022-08-17T07:11:20.490Z,23.44
2022-08-17T07:12:20.471Z,23.44
2022-08-17T07:13:20.477Z,23.39
2022-08-17T07:14:20.457Z,23.46
2022-08-17T07:15:20.432Z,23.49
2022-08-17T07:16:20.409Z,23.59
2022-08-17T07:17:20.391Z,23.49
2022-08-17T07:18:20.381Z,23.46
2022-08-17T07:19:20.382Z,23.42
2022-08-17T07:20:20.349Z,23.37
2022-08-17T07:21:22.918Z,23.39
2022-08-17T07:22:20.314Z,23.34
2022-08-17T07:23:20.310Z,23.36
2022-08-17T07:24:26.371Z,23.42
2022-08-17T07:25:20.814Z,23.51
2022-08-17T07:26:20.257Z,23.54
2022-08-17T07:27:20.243Z,23.51
2022-08-17T07:28:20.220Z,23.55
2022-08-17T07:29:20.212Z,23.52
2022-08-17T07:30:20.220Z,23.60
2022-08-17T07:31:20.189Z,23.63
2022-08-17T07:32:20.210Z,23.64
2022-08-17T07:33:20.354Z,23.71
2022-08-17T07:34:20.153Z,23.70
2022-08-17T07:35:20.143Z,23.78
2022-08-17T07:36:20.101Z,23.79
2022-08-17T07:37:20.116Z,23.81
2022-08-17T07:38:25.972Z,23.79
2022-08-17T07:39:20.059Z,23.88
2022-08-17T07:40:20.134Z,23.82
2022-08-17T07:41:20.042Z,23.96
2022-08-17T07:42:20.028Z,23.98
2022-08-17T07:43:22.298Z,23.91
2022-08-17T07:44:19.979Z,23.92
2022-08-17T07:45:19.966Z,23.91
2022-08-17T07:46:19.975Z,23.98
2022-08-17T07:47:19.935Z,23.94
2022-08-17T07:48:19.919Z,23.96
2022-08-17T07:49:19.910Z,23.88
2022-08-17T07:50:23.967Z,24.03
2022-08-17T07:51:19.875Z,24.03
2022-08-17T07:52:47.522Z,23.96
2022-08-17T07:53:19.847Z,23.84
2022-08-17T07:54:19.826Z,23.79
2022-08-17T07:55:19.857Z,23.81
2022-08-17T07:56:19.800Z,23.89
2022-08-17T07:57:19.797Z,23.88
2022-08-17T07:58:19.786Z,23.85
2022-08-17T07:59:23.544Z,23.92
2022-08-17T08:00:22.240Z,23.96
2022-08-17T08:01:19.753Z,23.98
2022-08-17T08:02:19.740Z,23.98
2022-08-17T08:03:19.696Z,23.98
2022-08-17T08:04:25.867Z,23.91
2022-08-17T08:05:30.688Z,23.91
2022-08-17T08:06:19.674Z,23.98
2022-08-17T08:07:19.631Z,23.96
2022-08-17T08:08:19.646Z,23.91
2022-08-17T08:09:19.615Z,24.00
2022-08-17T08:10:19.594Z,23.92
2022-08-17T08:11:19.585Z,23.97
2022-08-17T08:12:19.579Z,23.91
2022-08-17T08:13:19.542Z,23.82
2022-08-17T08:14:19.552Z,23.88
2022-08-17T08:15:19.519Z,23.86
2022-08-17T08:16:19.512Z,23.92
2022-08-17T08:17:19.485Z,24.07
2022-08-17T08:18:19.507Z,24.10
2022-08-17T08:19:21.184Z,24.18
2022-08-17T08:20:37.774Z,24.16
2022-08-17T08:21:19.432Z,24.19
2022-08-17T08:22:19.417Z,24.23
2022-08-17T08:23:19.413Z,24.16
2022-08-17T08:24:19.385Z,24.31
2022-08-17T08:25:19.376Z,24.36
2022-08-17T08:26:19.352Z,24.31
2022-08-17T08:27:19.339Z,24.25
2022-08-17T08:28:19.336Z,24.26
2022-08-17T08:29:19.347Z,24.21
2022-08-17T08:30:19.320Z,24.13
2022-08-17T08:31:19.281Z,24.01
2022-08-17T08:32:19.275Z,24.01
2022-08-17T08:33:19.248Z,24.01
2022-08-17T08:34:58.894Z,24.01
2022-08-17T08:35:19.235Z,24.07
2022-08-17T08:36:57.018Z,24.10
2022-08-17T08:37:23.823Z,24.06
2022-08-17T08:38:19.178Z,24.07
2022-08-17T08:39:19.161Z,23.97
2022-08-17T08:40:19.158Z,23.97
2022-08-17T08:41:19.159Z,23.94
2022-08-17T08:42:19.146Z,23.89
2022-08-17T08:43:19.102Z,23.84
2022-08-17T08:44:19.086Z,23.91
2022-08-17T08:45:19.081Z,23.85
2022-08-17T08:46:19.626Z,23.96
2022-08-17T08:47:19.046Z,23.97
2022-08-17T08:48:45.842Z,23.92
2022-08-17T08:49:19.021Z,23.91
2022-08-17T08:50:30.294Z,23.92
2022-08-17T08:51:19.031Z,23.98
2022-08-17T08:52:18.972Z,23.88
2022-08-17T08:53:18.960Z,23.79
2022-08-17T08:54:26.209Z,23.79
2022-08-17T08:55:18.938Z,23.81
2022-08-17T08:56:18.907Z,23.79
2022-08-17T08:57:25.414Z,23.79
2022-08-17T08:58:31.691Z,23.84
2022-08-17T08:59:18.865Z,23.74
2022-08-17T09:00:18.896Z,23.64
2022-08-17T09:01:18.859Z,23.70
2022-08-17T09:02:18.843Z,23.60
2022-08-17T09:03:18.827Z,23.69
2022-08-17T09:04:24.686Z,23.69
2022-08-17T09:05:18.779Z,23.74
2022-08-17T09:06:37.306Z,23.76
2022-08-17T09:07:18.753Z,23.78
2022-08-17T09:08:18.727Z,23.74
2022-08-17T09:09:18.729Z,23.78
2022-08-17T09:10:18.771Z,23.71
2022-08-17T09:11:18.690Z,23.71
2022-08-17T09:12:18.666Z,23.78
2022-08-17T09:13:18.676Z,23.76
2022-08-17T09:14:21.540Z,23.69
2022-08-17T09:15:18.621Z,23.70
2022-08-17T09:16:18.617Z,23.71
2022-08-17T09:17:18.636Z,23.67
2022-08-17T09:19:01.701Z,23.76
2022-08-17T09:19:18.580Z,23.76
2022-08-17T09:20:28.060Z,23.73
2022-08-17T09:21:18.520Z,23.76
2022-08-17T09:22:18.514Z,23.74
2022-08-17T09:23:18.517Z,23.78
2022-08-17T09:24:20.663Z,23.78
2022-08-17T09:25:18.508Z,23.73
2022-08-17T09:26:18.456Z,23.78
2022-08-17T09:27:18.439Z,23.67
2022-08-17T09:28:18.459Z,23.70
2022-08-17T09:29:18.411Z,23.73
2022-08-17T09:30:18.460Z,23.73
2022-08-17T09:31:18.379Z,23.74
2022-08-17T09:32:18.463Z,23.76
2022-08-17T09:33:18.347Z,23.85
2022-08-17T09:34:18.477Z,23.73
2022-08-17T09:35:18.328Z,23.71
2022-08-17T09:36:18.346Z,23.79
2022-08-17T09:37:18.290Z,23.81
2022-08-17T09:38:18.275Z,23.76
2022-08-17T09:39:18.269Z,23.82
2022-08-17T09:40:18.448Z,23.79
2022-08-17T09:42:57.401Z,23.79
2022-08-17T09:43:56.852Z,23.70
2022-08-17T09:44:57.533Z,23.56
2022-08-17T09:45:56.862Z,23.56
2022-08-17T09:46:56.819Z,23.64
2022-08-17T09:47:56.808Z,23.64
2022-08-17T09:48:56.779Z,23.61
2022-08-17T09:49:56.775Z,23.63
2022-08-17T09:51:05.925Z,23.66
2022-08-17T09:51:56.736Z,23.61
2022-08-17T09:52:56.810Z,23.56
2022-08-17T09:54:05.295Z,23.52
2022-08-17T09:54:56.692Z,23.49
2022-08-17T09:55:56.667Z,23.55
2022-08-17T09:57:25.892Z,23.59
2022-08-17T09:57:56.653Z,23.64
2022-08-17T09:58:56.640Z,23.64
2022-08-17T09:59:56.612Z,23.64
2022-08-17T10:00:57.847Z,23.69
2022-08-17T10:01:56.581Z,23.61
2022-08-17T10:02:56.568Z,23.60
2022-08-17T10:03:56.569Z,23.49
2022-08-17T10:04:56.528Z,23.54
2022-08-17T10:05:57.083Z,23.61
2022-08-17T10:06:56.516Z,23.59
2022-08-17T10:07:56.486Z,23.52
2022-08-17T10:08:56.468Z,23.55
2022-08-17T10:09:56.474Z,23.52
2022-08-17T10:10:57.018Z,23.55
2022-08-17T10:11:56.418Z,23.56
2022-08-17T10:12:56.405Z,23.59
2022-08-17T10:13:58.347Z,23.55
2022-08-17T10:14:56.401Z,23.54
2022-08-17T10:15:56.370Z,23.52
2022-08-17T10:16:56.338Z,23.55
2022-08-17T10:17:56.326Z,23.60
2022-08-17T10:18:56.329Z,23.56
2022-08-17T10:19:56.293Z,23.54
2022-08-17T10:20:56.297Z,23.56
2022-08-17T10:22:00.582Z,23.51
2022-08-17T10:22:56.298Z,23.44
2022-08-17T10:23:56.269Z,23.37
2022-08-17T10:25:21.376Z,23.42
2022-08-17T10:25:56.264Z,23.42
2022-08-17T10:26:57.449Z,23.37
2022-08-17T10:27:56.176Z,23.25
2022-08-17T10:28:56.181Z,23.29
2022-08-17T10:29:56.137Z,23.26
2022-08-17T10:31:16.706Z,23.28
2022-08-17T10:31:56.109Z,23.26
2022-08-17T10:32:56.093Z,23.25
2022-08-17T10:33:56.080Z,23.26
2022-08-17T10:34:56.095Z,23.29
2022-08-17T10:35:57.228Z,23.33
2022-08-17T10:36:56.035Z,23.28
2022-08-17T10:37:56.030Z,23.29
2022-08-17T10:38:56.030Z,23.29
2022-08-17T10:39:56.036Z,23.26
2022-08-17T10:40:55.969Z,23.28
2022-08-17T10:41:55.967Z,23.18
2022-08-17T10:42:55.989Z,23.07
2022-08-17T10:44:39.648Z,22.99
2022-08-17T10:44:55.920Z,22.98
2022-08-17T10:46:10.567Z,22.93
2022-08-17T10:46:55.873Z,22.78
2022-08-17T10:47:58.104Z,22.76
2022-08-17T10:48:55.841Z,22.66
2022-08-17T10:49:55.822Z,22.58
2022-08-17T10:50:55.811Z,22.48
2022-08-17T10:51:55.796Z,22.51
2022-08-17T10:52:55.778Z,22.51
2022-08-17T10:53:55.784Z,22.53
2022-08-17T10:54:58.321Z,22.48
2022-08-17T10:55:55.744Z,22.55
2022-08-17T10:56:55.713Z,22.46
2022-08-17T10:57:55.731Z,22.49
2022-08-17T10:58:55.685Z,22.48
2022-08-17T10:59:55.693Z,22.64
2022-08-17T11:00:55.726Z,22.66
2022-08-17T11:01:55.648Z,22.62
2022-08-17T11:02:55.622Z,22.67
2022-08-17T11:03:55.639Z,22.62
2022-08-17T11:04:55.634Z,22.61
2022-08-17T11:05:55.575Z,22.70
2022-08-17T11:06:58.829Z,22.74
2022-08-17T11:07:56.351Z,22.67
2022-08-17T11:08:55.936Z,22.73
2022-08-17T11:09:55.560Z,22.74
2022-08-17T11:10:55.492Z,22.83
2022-08-17T11:11:55.485Z,22.85
2022-08-17T11:12:55.466Z,22.78
2022-08-17T11:13:55.447Z,22.81
2022-08-17T11:14:55.435Z,22.81
2022-08-17T11:15:59.031Z,22.85
2022-08-17T11:16:55.403Z,22.80
2022-08-17T11:17:55.388Z,22.83
2022-08-17T11:18:55.364Z,22.80
2022-08-17T11:19:55.349Z,22.77
2022-08-17T11:20:55.359Z,22.81
2022-08-17T11:21:55.326Z,22.81
2022-08-17T11:22:55.303Z,22.88
2022-08-17T11:23:55.284Z,22.86
2022-08-17T11:24:55.274Z,22.93
2022-08-17T11:25:55.262Z,22.91
2022-08-17T11:26:55.259Z,23.01
2022-08-17T11:27:55.223Z,23.07
2022-08-17T11:28:55.207Z,23.17
2022-08-17T11:30:01.407Z,23.14
2022-08-17T11:30:55.190Z,23.29
2022-08-17T11:31:55.165Z,23.34
2022-08-17T11:32:55.698Z,23.33
2022-08-17T11:33:55.133Z,23.42
2022-08-17T11:34:55.122Z,23.55
2022-08-17T11:35:55.100Z,23.56
2022-08-17T11:36:55.086Z,23.64
2022-08-17T11:37:55.085Z,23.66
2022-08-17T11:38:55.054Z,23.64
2022-08-17T11:39:55.121Z,23.49
2022-08-17T11:40:55.030Z,23.56
2022-08-17T11:41:55.011Z,23.49
2022-08-17T11:42:55.014Z,23.49
2022-08-17T11:43:54.983Z,23.52
2022-08-17T11:44:54.968Z,23.55
2022-08-17T11:45:54.954Z,23.63
2022-08-17T11:46:54.930Z,23.74
2022-08-17T11:48:23.747Z,23.88
2022-08-17T11:48:54.928Z,24.03
2022-08-17T11:49:54.897Z,24.18
2022-08-17T11:50:54.875Z,24.31
2022-08-17T11:51:54.878Z,24.43
2022-08-17T11:52:54.850Z,24.51
2022-08-17T11:54:14.609Z,24.59
2022-08-17T11:55:03.613Z,24.66
2022-08-17T11:55:54.830Z,24.84
2022-08-17T11:56:54.786Z,25.03
2022-08-17T11:57:54.777Z,25.06
2022-08-17T11:58:54.757Z,24.99
2022-08-17T11:59:54.762Z,24.68
2022-08-17T12:00:54.745Z,24.58
2022-08-17T12:01:54.719Z,24.65
2022-08-17T12:02:54.710Z,24.58
2022-08-17T12:03:55.792Z,24.44
2022-08-17T12:04:54.788Z,24.40
2022-08-17T12:05:54.661Z,24.45
2022-08-17T12:06:54.643Z,24.34
2022-08-17T12:07:54.640Z,24.18
2022-08-17T12:08:55.344Z,23.96
2022-08-17T12:09:54.667Z,23.94
2022-08-17T12:10:54.607Z,23.89
2022-08-17T12:12:10.927Z,23.94
2022-08-17T12:12:54.567Z,24.03
2022-08-17T12:13:54.543Z,24.11
2022-08-17T12:15:11.526Z,24.21
2022-08-17T12:15:54.510Z,24.07
2022-08-17T12:16:54.526Z,23.92
2022-08-17T12:17:54.860Z,24.16
2022-08-17T12:18:54.481Z,24.19
2022-08-17T12:19:54.456Z,24.29
2022-08-17T12:20:56.754Z,24.34
2022-08-17T12:21:54.438Z,24.45
2022-08-17T12:22:54.424Z,24.44
2022-08-17T12:23:54.401Z,24.45
2022-08-17T12:24:54.387Z,24.51
2022-08-17T12:25:54.375Z,24.59
2022-08-17T12:26:54.380Z,24.60
2022-08-17T12:28:05.362Z,24.71
2022-08-17T12:28:54.327Z,24.81
2022-08-17T12:29:54.318Z,24.82
2022-08-17T12:30:54.308Z,24.78
2022-08-17T12:31:54.288Z,24.55
2022-08-17T12:32:54.317Z,24.59
2022-08-17T12:33:54.262Z,24.59
2022-08-17T12:34:54.263Z,24.68
2022-08-17T12:35:59.216Z,24.82
2022-08-17T12:36:54.256Z,24.71
2022-08-17T12:37:54.199Z,24.70
2022-08-17T12:38:54.212Z,24.84
2022-08-17T12:39:54.194Z,24.90
2022-08-17T12:40:54.172Z,25.04
2022-08-17T12:41:57.383Z,25.26
2022-08-17T12:42:54.167Z,25.23
2022-08-17T12:43:54.124Z,25.16
2022-08-17T12:44:54.109Z,25.22
2022-08-17T12:45:54.097Z,25.23
2022-08-17T12:46:54.085Z,25.18
2022-08-17T12:47:54.084Z,25.06
2022-08-17T12:48:59.114Z,24.89
2022-08-17T12:49:54.040Z,24.76
2022-08-17T12:50:54.028Z,24.81
2022-08-17T12:51:54.016Z,24.68
2022-08-17T12:52:56.442Z,24.55
2022-08-17T12:53:53.989Z,24.37
2022-08-17T12:54:54.079Z,24.19
2022-08-17T12:55:53.973Z,23.96